Time;durP1;ratioP1;P1;durP2;ratioP2;P2;SDS_P1;SDS_P2;PMS_P1;PMS_P2;Temp;Humidity;BMP_temperature;BMP_pressure;BME280_temperature;BME280_humidity;BME280_pressure;Samples;Min_cycle;Max_cycle;Signal;HPM_P1;HPM_P2
2022/04/25 00:01:28;;;;;;;1.13;0.20;;;18.70;99.90;;;;;;5014019;28;20487;-68
2022/04/25 00:03:55;;;;;;;1.77;0.22;;;18.70;99.90;;;;;;5012026;28;20017;-68
2022/04/25 00:06:23;;;;;;;1.02;0.25;;;18.90;99.90;;;;;;5012093;28;20552;-68
2022/04/25 00:08:51;;;;;;;1.20;0.35;;;19.10;99.90;;;;;;5018546;28;20064;-68
2022/04/25 00:11:19;;;;;;;0.40;0.22;;;19.30;99.90;;;;;;5011158;28;20038;-68
2022/04/25 00:13:46;;;;;;;1.52;0.20;;;19.50;99.90;;;;;;5005132;28;20383;-68
2022/04/25 00:16:14;;;;;;;0.20;0.10;;;19.30;99.90;;;;;;5016247;28;20164;-67
2022/04/25 00:18:41;;;;;;;0.73;0.20;;;19.30;99.90;;;;;;5013302;28;20022;-67
2022/04/25 00:21:09;;;;;;;1.27;0.40;;;19.50;99.90;;;;;;5022475;28;20083;-67
2022/04/25 00:23:36;;;;;;;0.68;0.17;;;19.60;99.90;;;;;;5010133;28;20022;-67
2022/04/25 00:26:04;;;;;;;2.20;0.47;;;19.80;99.90;;;;;;5011663;28;20025;-68
2022/04/25 00:28:32;;;;;;;0.45;0.20;;;19.70;99.90;;;;;;5012692;28;20033;-68
2022/04/25 00:31:00;;;;;;;0.90;0.17;;;19.50;99.90;;;;;;5010772;28;20368;-68
2022/04/25 00:33:28;;;;;;;0.60;0.20;;;19.30;99.90;;;;;;5019903;28;20026;-68
2022/04/25 00:35:55;;;;;;;0.70;0.10;;;19.20;99.90;;;;;;5022953;28;20033;-68
2022/04/25 00:38:22;;;;;;;1.05;0.30;;;19.00;99.90;;;;;;5010263;28;20248;-68
2022/04/25 00:40:50;;;;;;;0.77;0.28;;;18.70;99.90;;;;;;5019401;28;20026;-68
2022/04/25 00:43:17;;;;;;;1.80;0.57;;;18.60;99.90;;;;;;5009011;28;20022;-68
2022/04/25 00:45:45;;;;;;;0.95;0.57;;;18.70;99.90;;;;;;5018107;28;20074;-68
2022/04/25 00:48:12;;;;;;;0.75;0.32;;;18.80;99.90;;;;;;5011305;28;20550;-67
2022/04/25 00:50:40;;;;;;;3.58;0.95;;;18.80;99.90;;;;;;5012727;28;20022;-69
2022/04/25 00:53:09;;;;;;;0.52;0.20;;;19.00;99.90;;;;;;5012356;28;20340;-70
2022/04/25 00:55:37;;;;;;;1.63;0.30;;;19.30;99.90;;;;;;5013404;28;20025;-69
2022/04/25 00:58:05;;;;;;;3.70;0.65;;;19.50;99.90;;;;;;5014232;28;20029;-69
2022/04/25 01:00:36;;;;;;;1.50;0.22;;;19.50;99.90;;;;;;5014063;28;20633;-70
2022/04/25 01:03:04;;;;;;;1.23;0.20;;;19.30;99.90;;;;;;5026315;28;20140;-69
2022/04/25 01:05:32;;;;;;;1.88;0.40;;;19.50;99.90;;;;;;5018712;28;20124;-69
2022/04/25 01:07:59;;;;;;;0.55;0.20;;;19.60;99.90;;;;;;5028194;28;20159;-69
2022/04/25 01:10:26;;;;;;;3.20;0.47;;;19.70;99.90;;;;;;5024418;28;20052;-69
2022/04/25 01:12:54;;;;;;;1.52;0.25;;;19.70;99.90;;;;;;5018935;28;20094;-69
2022/04/25 01:15:23;;;;;;;1.48;0.20;;;19.60;99.90;;;;;;5029926;28;20071;-69
2022/04/25 01:17:50;;;;;;;0.90;0.25;;;19.60;99.90;;;;;;5027634;28;20468;-69
2022/04/25 01:20:18;;;;;;;1.42;0.38;;;19.50;99.90;;;;;;5029688;28;20018;-69
2022/04/25 01:29:12;;;;;;;0.88;0.32;;;19.80;99.90;;;;;;5027885;28;20454;-69
2022/04/25 01:31:39;;;;;;;1.55;0.55;;;20.10;99.90;;;;;;5031765;28;20029;-69
2022/04/25 01:34:06;;;;;;;1.08;0.30;;;20.30;99.90;;;;;;5033718;28;20486;-69
2022/04/25 01:36:34;;;;;;;2.22;0.40;;;20.80;99.90;;;;;;5032430;28;20470;-69
2022/04/25 01:39:02;;;;;;;1.52;0.28;;;20.80;99.90;;;;;;5031417;28;20051;-69
2022/04/25 01:41:30;;;;;;;2.42;0.32;;;20.50;99.90;;;;;;5029801;28;20040;-69
2022/04/25 01:43:57;;;;;;;2.83;0.20;;;20.80;99.90;;;;;;5027541;28;20076;-69
2022/04/25 01:46:24;;;;;;;2.28;0.30;;;20.90;99.90;;;;;;5029488;28;20029;-69
2022/04/25 01:48:51;;;;;;;2.60;0.40;;;20.90;99.90;;;;;;5029016;28;20036;-69
2022/04/25 01:51:20;;;;;;;2.88;0.20;;;20.70;99.90;;;;;;5025315;28;20025;-69
2022/04/25 01:53:47;;;;;;;2.35;0.55;;;20.40;99.90;;;;;;5027464;28;20440;-69
2022/04/25 01:56:14;;;;;;;1.85;0.28;;;20.30;99.90;;;;;;5029068;28;20025;-69
2022/04/25 01:58:41;;;;;;;1.42;0.30;;;20.60;99.90;;;;;;5030015;28;20029;-70
2022/04/25 02:01:09;;;;;;;1.23;0.20;;;20.80;99.90;;;;;;5038528;28;20017;-69
2022/04/25 02:03:36;;;;;;;1.83;0.38;;;21.00;99.90;;;;;;5043525;28;20019;-69
2022/04/25 02:06:03;;;;;;;0.75;0.30;;;21.00;99.90;;;;;;5032493;28;20384;-69
2022/04/25 02:08:31;;;;;;;2.58;0.60;;;21.00;99.90;;;;;;5035438;28;20037;-69
2022/04/25 02:13:43;;;;;;;1.17;0.20;;;21.00;99.90;;;;;;5048986;28;20112;-69
2022/04/25 02:16:11;;;;;;;1.60;0.17;;;21.40;99.90;;;;;;5036678;28;20527;-69
2022/04/25 02:18:41;;;;;;;2.53;0.63;;;22.30;99.90;;;;;;5050317;28;20029;-69
2022/04/25 02:21:09;;;;;;;1.67;0.75;;;22.90;99.90;;;;;;5032772;28;20091;-69
2022/04/25 02:23:36;;;;;;;2.72;0.30;;;23.40;99.90;;;;;;5045061;28;20052;-69
2022/04/25 02:26:08;;;;;;;0.82;0.40;;;23.50;99.90;;;;;;5040736;28;20041;-69
2022/04/25 02:28:36;;;;;;;2.38;0.70;;;23.80;99.90;;;;;;5048883;28;20040;-69
2022/04/25 02:31:05;;;;;;;2.15;0.45;;;24.00;99.90;;;;;;5045764;28;20452;-69
2022/04/25 02:33:34;;;;;;;1.85;0.43;;;23.50;99.90;;;;;;5036628;28;20049;-69
2022/04/25 02:36:05;;;;;;;2.88;0.35;;;23.10;99.90;;;;;;5031715;28;20029;-69
2022/04/25 02:38:34;;;;;;;2.15;0.40;;;23.40;99.90;;;;;;5036743;28;20099;-70
2022/04/25 02:41:04;;;;;;;0.95;0.32;;;23.60;99.90;;;;;;5039778;28;20029;-69
2022/04/25 02:43:32;;;;;;;3.10;0.30;;;22.70;99.90;;;;;;5022997;28;20076;-69
2022/04/25 02:46:00;;;;;;;1.10;0.38;;;22.10;99.90;;;;;;5037871;28;20025;-69
2022/04/25 02:48:28;;;;;;;2.58;0.45;;;21.70;99.90;;;;;;5045160;28;20017;-69
2022/04/25 02:50:55;;;;;;;1.00;0.30;;;22.00;99.90;;;;;;5027982;28;20026;-69
2022/04/25 02:53:24;;;;;;;1.88;0.50;;;22.00;99.90;;;;;;5014361;28;20029;-70
2022/04/25 02:55:53;;;;;;;3.15;0.52;;;22.20;99.90;;;;;;5033737;28;20116;-69
2022/04/25 02:58:24;;;;;;;3.88;0.35;;;22.20;99.90;;;;;;5036010;28;20031;-70
2022/04/25 03:00:53;;;;;;;3.00;0.55;;;21.80;99.90;;;;;;5022289;28;20510;-70
2022/04/25 03:03:21;;;;;;;4.35;0.75;;;21.40;99.90;;;;;;5035892;28;20046;-68
2022/04/25 03:05:50;;;;;;;2.15;0.40;;;21.40;99.90;;;;;;5035424;28;20367;-69
2022/04/25 03:08:20;;;;;;;2.00;0.50;;;21.40;99.90;;;;;;5040478;28;20128;-69
2022/04/25 03:10:48;;;;;;;1.73;0.50;;;21.10;99.90;;;;;;5032118;28;20413;-69
2022/04/25 03:13:16;;;;;;;3.55;0.40;;;21.00;99.90;;;;;;5033344;28;20034;-69
2022/04/25 03:15:46;;;;;;;0.90;0.38;;;20.90;99.90;;;;;;5032352;28;20030;-69
2022/04/25 03:18:24;;;;;;;2.63;0.40;;;21.00;99.90;;;;;;5033728;28;20125;-69
2022/04/25 03:20:52;;;;;;;1.63;0.20;;;21.10;99.90;;;;;;5032969;28;20037;-68
2022/04/25 03:23:23;;;;;;;3.35;0.43;;;21.00;99.90;;;;;;5032319;28;20167;-68
2022/04/25 03:25:51;;;;;;;3.33;0.95;;;21.10;99.90;;;;;;5023522;28;20033;-69
2022/04/25 03:28:19;;;;;;;1.67;0.40;;;21.00;99.90;;;;;;5034045;28;20026;-69
2022/04/25 03:30:47;;;;;;;3.67;0.55;;;21.10;99.90;;;;;;5033025;28;20033;-69
2022/04/25 03:33:15;;;;;;;2.45;0.47;;;21.10;99.90;;;;;;5039988;28;20033;-69
2022/04/25 03:35:46;;;;;;;2.72;0.38;;;20.90;99.90;;;;;;5031463;28;20017;-69
2022/04/25 03:38:17;;;;;;;2.70;0.40;;;21.00;99.90;;;;;;5029084;28;20032;-69
2022/04/25 03:40:45;;;;;;;1.70;0.30;;;20.90;99.90;;;;;;5026668;28;20491;-68
2022/04/25 03:43:15;;;;;;;4.93;0.88;;;20.80;99.90;;;;;;5023841;28;20156;-68
2022/04/25 03:45:43;;;;;;;3.45;0.40;;;20.80;99.90;;;;;;5022115;28;20479;-68
2022/04/25 03:48:10;;;;;;;1.95;0.28;;;20.80;99.90;;;;;;5016144;28;20366;-68
2022/04/25 03:50:37;;;;;;;2.60;0.20;;;20.70;99.90;;;;;;5031076;28;20108;-69
2022/04/25 03:53:07;;;;;;;1.80;0.20;;;20.70;99.90;;;;;;5034380;28;20064;-68
2022/04/25 03:58:21;;;;;;;4.15;0.30;;;20.60;99.90;;;;;;5029099;28;20504;-69
2022/04/25 04:00:49;;;;;;;1.15;0.20;;;20.60;99.90;;;;;;5033229;28;20493;-69
2022/04/25 04:03:19;;;;;;;1.40;0.20;;;20.70;99.90;;;;;;5034060;28;20457;-70
2022/04/25 04:05:47;;;;;;;1.20;0.40;;;20.60;99.90;;;;;;5032487;28;20115;-69
2022/04/25 04:08:15;;;;;;;3.40;0.20;;;20.60;99.90;;;;;;5013882;28;20525;-68
2022/04/25 04:10:42;;;;;;;1.55;0.20;;;20.80;99.90;;;;;;5041010;28;20045;-69
2022/04/25 04:13:10;;;;;;;0.88;0.17;;;20.80;99.90;;;;;;5032435;28;20486;-70
2022/04/25 04:15:37;;;;;;;4.25;0.40;;;20.90;99.90;;;;;;5027082;28;20095;-70
2022/04/25 04:18:05;;;;;;;3.70;0.15;;;21.10;99.90;;;;;;5031117;28;20064;-69
2022/04/25 04:20:33;;;;;;;3.90;0.20;;;21.10;99.90;;;;;;5030581;28;20014;-69
2022/04/25 04:23:01;;;;;;;1.05;0.28;;;21.30;99.90;;;;;;5036746;28;20029;-69
2022/04/25 04:25:28;;;;;;;3.30;0.52;;;21.30;99.90;;;;;;5031998;28;20104;-69
2022/04/25 04:27:55;;;;;;;3.58;0.40;;;21.30;99.90;;;;;;5030949;28;20032;-70
2022/04/25 04:30:23;;;;;;;0.70;0.20;;;21.40;99.90;;;;;;5036356;28;20025;-69
2022/04/25 04:32:52;;;;;;;5.55;0.52;;;21.30;99.90;;;;;;5035735;28;20025;-70
2022/04/25 04:38:06;;;;;;;1.75;0.30;;;20.90;99.90;;;;;;5023454;28;20088;-70
2022/04/25 04:40:34;;;;;;;2.00;0.45;;;20.90;99.90;;;;;;5017972;28;20498;-70
2022/04/25 04:43:02;;;;;;;3.35;0.50;;;21.00;99.90;;;;;;5028112;28;20500;-70
2022/04/25 04:45:30;;;;;;;4.03;0.40;;;20.90;99.90;;;;;;5032202;28;20482;-70
2022/04/25 04:47:58;;;;;;;2.90;0.20;;;21.00;99.90;;;;;;5040070;28;20493;-69
2022/04/25 04:50:25;;;;;;;1.13;0.20;;;21.00;99.90;;;;;;5029569;28;20033;-69
2022/04/25 04:52:58;;;;;;;2.78;0.35;;;21.00;99.90;;;;;;5026766;28;20454;-69
2022/04/25 04:55:25;;;;;;;1.08;0.20;;;20.80;99.90;;;;;;5040351;28;20087;-70
2022/04/25 04:57:55;;;;;;;1.85;0.38;;;20.70;99.90;;;;;;5033481;28;20034;-70
2022/04/25 05:00:23;;;;;;;1.42;0.20;;;20.70;99.90;;;;;;5027368;28;20096;-70
2022/04/25 05:02:51;;;;;;;1.63;0.30;;;20.60;99.90;;;;;;5030714;28;20459;-69
2022/04/25 05:05:18;;;;;;;2.33;0.22;;;20.60;99.90;;;;;;5033763;28;20057;-69
2022/04/25 05:07:46;;;;;;;1.60;0.20;;;20.70;99.90;;;;;;5042950;28;20045;-69
2022/04/25 05:10:13;;;;;;;2.67;0.43;;;20.70;99.90;;;;;;5031959;28;20106;-69
2022/04/25 05:12:51;;;;;;;1.38;0.43;;;20.80;99.90;;;;;;5032642;28;20502;-69
2022/04/25 05:15:19;;;;;;;2.00;0.20;;;20.80;99.90;;;;;;5038169;28;20112;-69
2022/04/25 05:17:52;;;;;;;2.28;0.30;;;20.70;99.90;;;;;;5030084;28;20512;-69
2022/04/25 05:20:22;;;;;;;0.82;0.20;;;20.60;99.90;;;;;;5028834;28;20029;-69
2022/04/25 05:22:51;;;;;;;0.43;0.28;;;20.50;99.90;;;;;;5032637;28;20474;-69
2022/04/25 05:25:23;;;;;;;2.55;0.13;;;20.50;99.90;;;;;;5027459;28;20398;-68
2022/04/25 05:27:55;;;;;;;1.85;0.20;;;20.50;99.90;;;;;;5012925;28;20536;-69
2022/04/25 05:30:24;;;;;;;2.72;0.40;;;20.60;99.90;;;;;;5017189;28;20029;-69
2022/04/25 05:32:54;;;;;;;2.17;0.10;;;20.50;99.90;;;;;;5030919;28;20125;-68
2022/04/25 05:35:26;;;;;;;1.52;0.10;;;20.50;99.90;;;;;;5031354;28;20072;-69
2022/04/25 05:37:54;;;;;;;1.10;0.20;;;20.50;99.90;;;;;;5031499;28;20074;-68
2022/04/25 05:40:22;;;;;;;1.77;0.10;;;20.60;99.90;;;;;;5022685;28;20070;-68
2022/04/25 05:42:51;;;;;;;1.17;0.20;;;20.50;99.90;;;;;;5022789;28;20033;-68
2022/04/25 05:45:22;;;;;;;1.42;0.20;;;20.50;99.90;;;;;;5026444;28;20025;-69
2022/04/25 05:47:54;;;;;;;2.17;0.30;;;20.50;99.90;;;;;;5030964;28;20082;-69
2022/04/25 05:53:07;;;;;;;1.48;0.32;;;20.50;99.90;;;;;;5024093;28;20040;-68
2022/04/25 05:55:35;;;;;;;1.33;0.17;;;20.50;99.90;;;;;;5025408;28;20052;-68
2022/04/25 05:58:03;;;;;;;3.38;0.20;;;20.50;99.90;;;;;;5020740;28;20084;-68
2022/04/25 06:00:34;;;;;;;1.10;0.40;;;20.50;99.90;;;;;;5031151;28;20025;-68
2022/04/25 06:03:02;;;;;;;0.75;0.25;;;20.50;99.90;;;;;;5030327;28;20057;-69
2022/04/25 06:05:29;;;;;;;2.58;0.73;;;20.40;99.90;;;;;;5039821;28;20036;-68
2022/04/25 06:07:57;;;;;;;28.88;7.68;;;20.30;99.90;;;;;;5032749;28;20490;-68
2022/04/25 06:10:27;;;;;;;1.77;0.60;;;20.30;99.90;;;;;;5021790;28;20040;-68
2022/04/25 06:12:55;;;;;;;4.72;0.40;;;20.20;99.90;;;;;;5030830;28;20038;-66
2022/04/25 06:15:26;;;;;;;1.35;0.30;;;20.20;99.90;;;;;;5030335;28;20053;-68
2022/04/25 06:17:55;;;;;;;2.08;0.30;;;20.10;99.90;;;;;;5023521;28;20100;-68
2022/04/25 06:20:22;;;;;;;3.38;0.60;;;20.10;99.90;;;;;;5026441;28;20478;-67
2022/04/25 06:23:02;;;;;;;1.52;0.28;;;20.10;99.90;;;;;;5032595;28;20038;-67
2022/04/25 06:25:30;;;;;;;2.00;0.17;;;20.10;99.90;;;;;;5022033;28;20022;-68
2022/04/25 06:27:58;;;;;;;4.97;0.40;;;20.10;99.90;;;;;;5036009;28;20108;-68
2022/04/25 06:30:28;;;;;;;1.30;0.28;;;20.10;99.90;;;;;;5028296;28;20430;-68
2022/04/25 06:32:59;;;;;;;5.32;0.90;;;20.00;99.90;;;;;;5032646;28;20030;-67
2022/04/25 06:35:28;;;;;;;1.88;0.75;;;20.00;99.90;;;;;;5032807;28;20514;-67
2022/04/25 06:37:55;;;;;;;2.50;0.57;;;20.00;99.90;;;;;;5020515;28;20022;-68
2022/04/25 06:40:22;;;;;;;1.20;0.30;;;20.00;99.90;;;;;;5035695;28;20466;-67
2022/04/25 06:42:51;;;;;;;1.52;0.55;;;20.00;99.90;;;;;;5022332;28;20536;-69
2022/04/25 06:45:18;;;;;;;2.42;0.22;;;19.90;99.90;;;;;;5028515;28;20081;-69
2022/04/25 06:47:45;;;;;;;2.10;0.60;;;19.90;99.90;;;;;;5034969;28;20513;-69
2022/04/25 06:50:13;;;;;;;1.63;0.38;;;19.90;99.90;;;;;;5036306;28;20030;-69
2022/04/25 06:52:41;;;;;;;1.42;0.20;;;19.90;99.90;;;;;;5034856;28;20440;-67
2022/04/25 06:55:09;;;;;;;3.40;0.40;;;19.90;99.90;;;;;;5017635;28;20249;-68
2022/04/25 06:57:36;;;;;;;1.50;0.40;;;19.90;99.90;;;;;;5032358;28;20052;-68
2022/04/25 07:00:09;;;;;;;3.00;0.40;;;19.90;99.90;;;;;;5022284;28;20022;-68
2022/04/25 07:02:37;;;;;;;2.08;0.30;;;19.90;99.90;;;;;;5033947;28;20406;-68
2022/04/25 07:05:06;;;;;;;2.75;0.35;;;19.90;99.90;;;;;;5034892;28;20084;-68
2022/04/25 07:07:33;;;;;;;2.50;0.38;;;19.80;99.90;;;;;;5029965;28;20030;-68
2022/04/25 07:10:01;;;;;;;3.70;0.47;;;19.80;99.90;;;;;;5054178;28;20422;-68
2022/04/25 07:12:28;;;;;;;3.42;0.45;;;19.80;99.90;;;;;;5054333;28;20025;-67
2022/04/25 07:14:56;;;;;;;5.53;0.57;;;19.70;99.90;;;;;;5032196;28;20033;-68
2022/04/25 07:17:23;;;;;;;2.92;0.30;;;19.70;99.90;;;;;;5034647;28;20116;-68
2022/04/25 07:19:51;;;;;;;0.95;0.40;;;19.60;99.90;;;;;;5034053;28;20028;-68
2022/04/25 07:30:34;;;;;;;2.28;0.30;;;19.50;99.90;;;;;;5032824;28;20045;-68
2022/04/25 07:33:02;;;;;;;2.13;0.50;;;19.40;99.90;;;;;;5040520;28;20504;-68
2022/04/25 07:35:30;;;;;;;2.72;0.63;;;19.40;99.90;;;;;;5032997;28;20112;-68
2022/04/25 07:37:57;;;;;;;2.80;0.40;;;19.40;99.90;;;;;;5033867;28;20094;-68
2022/04/25 07:40:25;;;;;;;1.20;0.52;;;19.40;99.90;;;;;;5031790;28;20025;-68
2022/04/25 07:42:55;;;;;;;1.10;0.30;;;19.40;99.90;;;;;;5030075;28;20108;-68
2022/04/25 07:45:23;;;;;;;2.22;0.30;;;19.40;99.90;;;;;;5033850;28;20029;-68
2022/04/25 07:47:53;;;;;;;2.72;0.50;;;19.40;99.90;;;;;;5034224;28;20030;-68
2022/04/25 07:50:23;;;;;;;3.50;0.40;;;19.40;99.90;;;;;;5016508;28;20025;-68
2022/04/25 07:52:52;;;;;;;1.75;0.20;;;19.40;99.90;;;;;;5019050;28;20052;-68
2022/04/25 07:55:19;;;;;;;2.50;0.38;;;19.40;99.90;;;;;;5032189;28;20021;-68
2022/04/25 07:57:46;;;;;;;2.92;0.77;;;19.40;99.90;;;;;;5032649;28;20546;-68
2022/04/25 08:00:14;;;;;;;1.90;0.30;;;19.40;99.90;;;;;;5031281;28;20470;-68
2022/04/25 08:02:41;;;;;;;2.13;0.38;;;19.30;99.90;;;;;;5052762;28;20144;-68
2022/04/25 08:05:09;;;;;;;2.83;0.68;;;19.30;99.90;;;;;;5027072;28;20034;-67
2022/04/25 08:07:37;;;;;;;1.42;0.60;;;19.30;99.90;;;;;;5020379;28;20026;-68
2022/04/25 08:10:05;;;;;;;3.20;1.10;;;19.30;99.90;;;;;;5019265;28;20037;-68
2022/04/25 08:18:06;;;;;;;6.18;1.05;;;19.30;99.90;;;;;;5032113;28;20036;-68
2022/04/25 08:20:36;;;;;;;2.53;0.80;;;19.20;99.90;;;;;;5033695;28;20459;-67
2022/04/25 08:23:05;;;;;;;5.00;0.93;;;19.20;99.90;;;;;;5031508;28;20468;-67
2022/04/25 08:25:33;;;;;;;2.22;0.70;;;19.20;99.90;;;;;;5033407;28;20037;-68
2022/04/25 08:28:01;;;;;;;2.67;1.00;;;19.20;99.90;;;;;;5026927;28;20025;-68
2022/04/25 08:30:28;;;;;;;4.32;0.77;;;19.30;99.90;;;;;;5042639;28;20045;-67
2022/04/25 08:32:56;;;;;;;2.13;0.90;;;19.20;99.90;;;;;;5031105;28;20474;-68
2022/04/25 08:35:24;;;;;;;2.97;0.70;;;19.30;99.90;;;;;;5031802;28;20029;-68
2022/04/25 08:37:52;;;;;;;4.05;0.77;;;19.20;99.90;;;;;;5030677;28;20112;-67
2022/04/25 08:40:19;;;;;;;4.28;0.90;;;19.20;99.90;;;;;;5032208;28;20036;-68
2022/04/25 08:42:46;;;;;;;2.47;1.00;;;19.20;99.90;;;;;;5031270;28;20087;-68
2022/04/25 08:45:14;;;;;;;1.40;0.43;;;19.20;99.90;;;;;;5032770;28;20037;-68
2022/04/25 08:47:47;;;;;;;2.70;0.70;;;19.10;99.90;;;;;;5031968;28;20041;-68
2022/04/25 08:50:17;;;;;;;2.85;0.60;;;19.10;99.90;;;;;;5033210;28;20033;-68
2022/04/25 08:52:45;;;;;;;2.38;0.77;;;19.00;99.90;;;;;;5031696;28;20120;-68
2022/04/25 08:55:13;;;;;;;1.88;0.70;;;19.00;99.90;;;;;;5032175;28;20037;-68
2022/04/25 08:57:43;;;;;;;2.25;0.50;;;19.00;99.90;;;;;;5026778;28;20439;-68
2022/04/25 09:00:12;;;;;;;4.53;0.47;;;18.90;99.90;;;;;;5031630;28;20061;-68
2022/04/25 09:02:39;;;;;;;3.22;0.57;;;18.90;99.90;;;;;;5026677;28;20441;-68
2022/04/25 09:05:10;;;;;;;3.80;0.88;;;18.80;99.90;;;;;;5022111;28;20422;-68
2022/04/25 09:07:38;;;;;;;2.53;0.80;;;18.80;99.90;;;;;;5031816;28;20037;-68
2022/04/25 09:10:11;;;;;;;3.25;0.93;;;18.80;99.90;;;;;;5028028;28;20048;-67
2022/04/25 09:12:41;;;;;;;4.40;1.13;;;18.70;99.90;;;;;;5029194;28;20104;-67
2022/04/25 09:15:09;;;;;;;1.77;0.40;;;18.80;99.90;;;;;;5031943;28;20478;-67
2022/04/25 09:17:40;;;;;;;3.17;0.60;;;18.70;99.90;;;;;;5030564;28;20049;-67
2022/04/25 09:20:09;;;;;;;5.38;0.90;;;18.70;99.90;;;;;;5024216;28;20033;-67
2022/04/25 09:22:41;;;;;;;4.35;1.10;;;18.70;99.90;;;;;;5033382;28;20026;-67
2022/04/25 09:25:11;;;;;;;3.53;1.08;;;18.70;99.90;;;;;;5032762;28;20029;-68
2022/04/25 09:27:41;;;;;;;3.35;0.82;;;18.60;99.90;;;;;;5029874;28;20029;-67
2022/04/25 09:30:22;;;;;;;2.10;0.63;;;18.60;99.90;;;;;;5031492;28;20029;-67
2022/04/25 09:32:52;;;;;;;2.50;0.50;;;18.60;99.90;;;;;;5029634;28;20432;-68
2022/04/25 09:35:34;;;;;;;1.65;0.57;;;18.60;99.90;;;;;;5028608;28;20021;-68
2022/04/25 09:38:03;;;;;;;2.78;0.52;;;18.70;99.90;;;;;;5030199;28;20030;-68
2022/04/25 09:40:33;;;;;;;2.63;0.68;;;18.60;99.90;;;;;;5031363;28;20057;-67
2022/04/25 09:43:15;;;;;;;1.70;0.63;;;18.60;99.90;;;;;;5031261;28;20025;-68
2022/04/25 09:45:44;;;;;;;4.50;0.57;;;18.60;99.90;;;;;;5029616;28;20370;-68
2022/04/25 09:48:23;;;;;;;2.65;0.50;;;18.70;99.90;;;;;;5033261;28;20109;-68
2022/04/25 09:51:11;;;;;;;3.05;0.47;;;18.70;99.90;;;;;;5028638;28;20092;-67
2022/04/25 09:53:52;;;;;;;3.10;1.08;;;18.60;99.90;;;;;;5019401;28;20026;-67
2022/04/25 09:56:24;;;;;;;2.35;0.60;;;18.70;99.90;;;;;;5035361;28;20429;-67
2022/04/25 09:59:08;;;;;;;5.72;0.68;;;18.70;99.90;;;;;;5029614;28;20052;-68
2022/04/25 10:01:38;;;;;;;2.57;0.60;;;18.70;99.90;;;;;;5034624;28;20379;-68
2022/04/25 10:04:26;;;;;;;5.43;0.70;;;18.60;99.90;;;;;;5033704;28;20026;-68
2022/04/25 10:06:55;;;;;;;4.00;0.50;;;18.60;99.90;;;;;;5029222;28;20061;-68
2022/04/25 10:09:28;;;;;;;3.08;0.50;;;18.60;99.90;;;;;;5035463;28;20042;-68
2022/04/25 10:11:59;;;;;;;2.35;0.38;;;18.60;99.90;;;;;;5034274;28;20021;-68
2022/04/25 10:14:28;;;;;;;2.83;0.52;;;18.60;99.90;;;;;;5033067;28;20043;-68
2022/04/25 10:17:01;;;;;;;5.88;0.50;;;18.70;99.90;;;;;;5035487;28;20017;-68
2022/04/25 10:19:30;;;;;;;2.15;0.77;;;18.70;99.90;;;;;;5034248;28;20045;-68
2022/04/25 10:21:57;;;;;;;2.63;0.50;;;18.70;99.90;;;;;;5029247;28;20059;-68
2022/04/25 10:24:25;;;;;;;1.85;0.40;;;18.60;99.90;;;;;;5033465;28;20025;-68
2022/04/25 10:26:54;;;;;;;2.95;0.50;;;18.60;99.90;;;;;;5034534;28;20193;-67
2022/04/25 10:29:45;;;;;;;3.75;0.80;;;18.60;99.90;;;;;;5033141;28;20025;-68
2022/04/25 10:32:17;;;;;;;2.80;0.70;;;18.60;99.90;;;;;;5032978;28;20041;-68
2022/04/25 10:34:54;;;;;;;4.18;0.70;;;18.50;99.90;;;;;;5034387;28;20057;-68
2022/04/25 10:37:42;;;;;;;5.25;1.05;;;18.50;99.90;;;;;;5033969;28;20037;-68
2022/04/25 10:44:10;;;;;;;4.68;0.65;;;18.50;99.90;;;;;;5034451;28;20067;-68
2022/04/25 10:46:03;;;;;;;1.27;0.32;;;18.40;99.90;;;;;;5026263;28;20056;-67
2022/04/25 10:48:50;;;;;;;4.90;0.82;;;18.40;99.90;;;;;;5033155;28;20033;-68
2022/04/25 10:51:17;;;;;;;4.60;0.93;;;18.40;99.90;;;;;;5031995;28;20490;-68
2022/04/25 10:54:01;;;;;;;2.33;0.60;;;18.40;99.90;;;;;;5033775;28;20108;-67
2022/04/25 10:56:32;;;;;;;3.87;0.70;;;18.30;99.90;;;;;;5027001;28;20436;-68
2022/04/25 10:59:32;;;;;;;1.20;0.40;;;18.30;99.90;;;;;;5032912;28;20025;-67
2022/04/25 11:01:59;;;;;;;2.33;0.40;;;18.30;99.90;;;;;;4981182;28;20120;-68
2022/04/25 11:04:27;;;;;;;4.55;0.55;;;18.30;99.90;;;;;;5033416;28;20021;-68
2022/04/25 11:07:25;;;;;;;2.30;0.50;;;18.20;99.90;;;;;;5034828;28;20087;-67
2022/04/25 11:09:53;;;;;;;2.08;0.57;;;18.20;99.90;;;;;;5015292;28;20042;-68
2022/04/25 11:12:40;;;;;;;4.93;0.95;;;18.20;99.90;;;;;;5029166;28;20437;-68
2022/04/25 11:15:08;;;;;;;3.60;1.23;;;18.20;99.90;;;;;;5033679;28;20030;-68
2022/04/25 11:17:35;;;;;;;3.10;0.80;;;18.10;99.90;;;;;;5034241;28;20100;-68
2022/04/25 11:20:04;;;;;;;2.55;0.90;;;18.10;99.90;;;;;;5034341;28;20018;-67
2022/04/25 11:22:49;;;;;;;3.60;0.80;;;18.10;99.90;;;;;;5034264;28;20095;-68
2022/04/25 11:25:29;;;;;;;2.15;0.50;;;18.10;99.90;;;;;;5031905;28;20053;-68
2022/04/25 11:28:08;;;;;;;2.15;0.73;;;18.10;99.90;;;;;;5033655;28;20475;-68
2022/04/25 11:30:37;;;;;;;2.58;0.60;;;18.10;99.90;;;;;;5034252;28;20041;-68
2022/04/25 11:33:09;;;;;;;2.92;0.95;;;18.10;99.90;;;;;;5032205;28;20041;-68
2022/04/25 11:35:39;;;;;;;1.90;0.25;;;18.00;99.90;;;;;;5034503;28;20504;-68
2022/04/25 11:38:07;;;;;;;3.92;0.88;;;18.00;99.90;;;;;;5033904;28;20040;-68
2022/04/25 11:40:35;;;;;;;5.40;0.70;;;17.90;99.90;;;;;;5029827;28;20041;-68
2022/04/25 11:43:05;;;;;;;2.15;0.43;;;17.90;99.90;;;;;;5030162;28;20389;-67
2022/04/25 11:45:32;;;;;;;5.70;0.98;;;17.90;99.90;;;;;;5031455;28;20171;-68
2022/04/25 11:48:00;;;;;;;2.42;0.60;;;17.80;99.90;;;;;;5031526;28;20036;-68
2022/04/25 11:50:28;;;;;;;2.78;0.60;;;17.80;99.90;;;;;;5029893;28;20029;-68
2022/04/25 11:52:56;;;;;;;2.83;0.50;;;17.80;99.90;;;;;;5032301;28;20037;-68
2022/04/25 11:55:34;;;;;;;3.15;0.95;;;17.80;99.90;;;;;;5031868;28;20014;-68
2022/04/25 11:58:03;;;;;;;3.50;0.45;;;17.80;99.90;;;;;;5031837;28;20548;-68
2022/04/25 12:00:31;;;;;;;1.90;0.65;;;17.80;99.90;;;;;;5032499;28;20025;-68
2022/04/25 12:02:58;;;;;;;2.42;0.40;;;17.70;99.90;;;;;;5034977;28;20049;-68
2022/04/25 12:05:31;;;;;;;2.17;0.50;;;17.70;99.90;;;;;;5032587;28;20028;-68
2022/04/25 12:16:17;;;;;;;2.47;0.68;;;17.60;99.90;;;;;;5031492;28;20068;-68
2022/04/25 12:18:51;;;;;;;2.35;0.65;;;17.70;99.90;;;;;;5032977;28;20025;-68
2022/04/25 12:21:20;;;;;;;4.22;1.35;;;17.70;99.90;;;;;;5025361;28;20374;-67
2022/04/25 12:23:52;;;;;;;2.28;0.85;;;17.80;99.90;;;;;;5030937;28;20038;-67
2022/04/25 12:26:26;;;;;;;3.67;1.30;;;17.80;99.90;;;;;;5030131;28;20386;-68
2022/04/25 12:29:01;;;;;;;2.90;0.80;;;17.80;99.90;;;;;;5039282;28;20100;-67
2022/04/25 12:31:37;;;;;;;3.63;1.42;;;17.80;99.90;;;;;;5024823;28;20017;-68
2022/04/25 12:34:09;;;;;;;5.43;2.17;;;17.80;99.90;;;;;;5032747;28;20513;-67
2022/04/25 12:36:38;;;;;;;11.00;6.85;;;17.80;99.90;;;;;;5032869;28;20025;-67
2022/04/25 12:39:14;;;;;;;10.20;4.78;;;17.70;99.90;;;;;;5029417;28;20030;-68
2022/04/25 12:41:53;;;;;;;7.13;3.15;;;17.70;99.90;;;;;;5030209;28;20028;-68
2022/04/25 12:44:21;;;;;;;10.90;4.40;;;17.60;99.90;;;;;;5027350;28;20037;-67
2022/04/25 12:47:04;;;;;;;9.32;5.30;;;17.60;99.90;;;;;;5030933;28;20029;-67
2022/04/25 12:49:46;;;;;;;6.28;2.10;;;17.50;99.90;;;;;;5029167;28;20497;-67
2022/04/25 12:52:16;;;;;;;6.82;5.05;;;17.50;99.90;;;;;;5030463;28;20029;-67
2022/04/25 12:54:43;;;;;;;10.93;4.70;;;17.50;99.90;;;;;;5030114;28;20029;-67
2022/04/25 12:57:23;;;;;;;5.70;3.53;;;17.50;99.90;;;;;;5029322;28;20485;-68
2022/04/25 12:59:53;;;;;;;5.95;3.45;;;17.50;99.90;;;;;;5034576;28;20024;-67
2022/04/25 13:02:32;;;;;;;4.57;1.67;;;17.40;99.90;;;;;;5033392;28;20072;-67
2022/04/25 13:05:02;;;;;;;6.13;2.78;;;17.40;99.90;;;;;;5022566;28;20052;-67
2022/04/25 13:07:41;;;;;;;9.82;4.03;;;17.50;99.90;;;;;;5030598;28;20395;-67
2022/04/25 13:10:11;;;;;;;6.57;1.77;;;17.40;99.90;;;;;;5029417;28;20736;-67
2022/04/25 13:12:40;;;;;;;7.45;2.47;;;17.40;99.90;;;;;;5024360;28;20547;-67
2022/04/25 13:15:10;;;;;;;3.10;1.63;;;17.40;99.90;;;;;;5029843;28;20033;-67
2022/04/25 13:17:39;;;;;;;7.22;2.72;;;17.40;99.90;;;;;;5029931;28;20029;-67
2022/04/25 13:20:08;;;;;;;5.65;2.00;;;17.40;99.90;;;;;;5026470;28;20041;-67
2022/04/25 13:22:36;;;;;;;8.07;2.40;;;17.40;99.90;;;;;;5029036;28;20021;-67
2022/04/25 13:25:06;;;;;;;6.32;3.05;;;17.50;99.90;;;;;;5031381;28;20030;-67
2022/04/25 13:27:36;;;;;;;5.85;2.80;;;17.40;99.90;;;;;;5036851;28;20029;-67
2022/04/25 13:30:06;;;;;;;6.95;3.08;;;17.30;99.90;;;;;;5034753;28;20637;-67
2022/04/25 13:32:34;;;;;;;5.82;3.25;;;17.20;99.90;;;;;;5035566;28;20100;-67
2022/04/25 13:35:02;;;;;;;5.28;3.60;;;17.20;99.90;;;;;;5031437;28;20183;-67
2022/04/25 13:37:30;;;;;;;8.13;3.65;;;17.20;99.90;;;;;;5037002;28;20066;-67
2022/04/25 13:39:59;;;;;;;6.85;3.40;;;17.20;99.90;;;;;;5032122;28;20033;-67
2022/04/25 13:42:26;;;;;;;6.90;3.05;;;17.20;99.90;;;;;;5031771;28;20017;-67